Time;durP1;ratioP1;P1;durP2;ratioP2;P2;SDS_P1;SDS_P2;PMS_P1;PMS_P2;Temp;Humidity;BMP_temperature;BMP_pressure;BME280_temperature;BME280_humidity;BME280_pressure;Samples;Min_cycle;Max_cycle;Signal;HPM_P1;HPM_P2
2022/05/01 00:01:01;;;;;;;26.15;18.67;;;;;;;21.23;44.13;102088.69;5074118;28;20021;-70
2022/05/01 00:03:36;;;;;;;28.42;19.35;;;;;;;21.24;44.10;102092.31;5074293;28;20487;-70
2022/05/01 00:06:09;;;;;;;24.08;19.00;;;;;;;21.24;44.15;102086.75;5073255;28;20485;-70
2022/05/01 00:08:37;;;;;;;23.25;19.35;;;;;;;21.31;43.96;102075.84;5074065;28;20111;-70
2022/05/01 00:11:03;;;;;;;24.70;18.88;;;;;;;21.35;43.92;102071.19;5072601;28;20032;-70
2022/05/01 00:13:29;;;;;;;29.17;20.40;;;;;;;21.33;43.94;102079.09;5074309;28;20028;-70
2022/05/01 00:15:56;;;;;;;23.92;19.30;;;;;;;21.29;43.92;102073.41;5073918;28;20031;-68
2022/05/01 00:18:22;;;;;;;27.73;19.23;;;;;;;21.32;43.93;102069.16;5073792;28;20123;-69
2022/05/01 00:20:48;;;;;;;29.85;20.67;;;;;;;21.25;44.08;102072.50;5073959;28;20538;-68
2022/05/01 00:23:14;;;;;;;29.20;20.67;;;;;;;21.27;44.07;102069.34;5073912;28;20025;-68
2022/05/01 00:25:42;;;;;;;23.45;19.35;;;;;;;21.12;44.42;102061.78;5072327;28;20116;-68
2022/05/01 00:28:13;;;;;;;26.52;20.13;;;;;;;21.01;44.68;102065.06;5073825;28;20028;-68
2022/05/01 00:30:40;;;;;;;24.95;19.80;;;;;;;21.11;44.44;102065.72;5073526;28;20489;-68
2022/05/01 00:38:35;;;;;;;26.65;19.75;;;;;;;21.12;44.40;102059.00;5073661;28;20525;-69
2022/05/01 00:41:04;;;;;;;23.75;18.88;;;;;;;21.01;44.58;102045.59;5073500;28;20021;-92
2022/05/01 00:43:30;;;;;;;28.88;19.80;;;;;;;21.00;44.63;102054.28;5073259;28;20020;-69
2022/05/01 00:45:56;;;;;;;24.17;17.90;;;;;;;21.00;44.65;102049.53;5073197;28;20024;-68
2022/05/01 00:48:22;;;;;;;22.15;18.80;;;;;;;20.92;44.90;102049.66;5073450;28;20021;-69
2022/05/01 00:50:47;;;;;;;22.27;17.77;;;;;;;20.90;45.04;102040.88;5073196;28;20066;-68
2022/05/01 00:53:13;;;;;;;21.13;17.50;;;;;;;21.03;44.59;102042.47;5073187;28;20063;-69
2022/05/01 00:55:39;;;;;;;25.13;18.95;;;;;;;20.92;44.80;102042.13;5072986;28;20108;-92
2022/05/01 00:58:06;;;;;;;25.20;18.33;;;;;;;20.97;44.70;102039.13;5073095;28;20074;-69
2022/05/01 01:00:35;;;;;;;23.70;18.88;;;;;;;21.10;44.47;102030.75;5073188;28;20104;-69
2022/05/01 01:03:01;;;;;;;20.73;18.25;;;;;;;21.19;44.22;102025.84;5073028;28;20048;-69
2022/05/01 01:05:27;;;;;;;22.73;18.42;;;;;;;21.25;44.35;102022.47;5072829;28;20036;-68
2022/05/01 01:07:53;;;;;;;25.55;19.35;;;;;;;21.08;44.45;102033.06;5072827;28;20033;-69
2022/05/01 01:10:19;;;;;;;21.70;18.45;;;;;;;20.99;44.55;102017.34;5073017;28;21884;-94
2022/05/01 01:12:54;;;;;;;24.55;19.33;;;;;;;21.06;44.66;102016.75;5073025;28;20051;-71
2022/05/01 01:15:21;;;;;;;22.35;18.48;;;;;;;20.98;44.59;102009.38;5073122;28;20032;-71
2022/05/01 01:17:47;;;;;;;22.73;18.58;;;;;;;21.02;44.60;102007.50;5072439;28;20029;-96
2022/05/01 01:20:17;;;;;;;24.15;17.42;;;;;;;21.02;44.68;101996.41;5073240;28;20047;-70
2022/05/01 01:22:44;;;;;;;;;;;;;;;20.98;44.67;101998.25;5073239;28;20394;-88
2022/05/01 01:25:11;;;;;;;20.08;16.75;;;;;;;21.01;44.58;101989.22;5072911;28;19974;-71
2022/05/01 01:27:40;;;;;;;25.33;18.50;;;;;;;20.59;45.61;101995.16;5073113;28;20150;-94
2022/05/01 01:32:52;;;;;;;20.13;17.17;;;;;;;20.80;45.03;101986.63;5073016;28;20086;-70
2022/05/01 01:35:22;;;;;;;22.13;16.45;;;;;;;20.87;44.86;101986.84;5072538;28;20036;-71
2022/05/01 01:37:49;;;;;;;20.58;17.48;;;;;;;20.75;45.25;101981.31;5072564;28;20051;-71
2022/05/01 01:40:23;;;;;;;22.48;16.75;;;;;;;20.86;44.88;101982.47;5072524;28;20387;-70
2022/05/01 01:42:52;;;;;;;23.55;17.33;;;;;;;20.73;45.19;101978.91;5072430;28;20021;-71
2022/05/01 01:45:18;;;;;;;21.05;15.82;;;;;;;20.76;45.07;101975.41;5072366;28;20478;-70
2022/05/01 01:47:44;;;;;;;19.65;16.33;;;;;;;20.84;44.87;101970.88;5072701;28;20029;-94
2022/05/01 01:50:13;;;;;;;22.88;16.27;;;;;;;20.68;45.49;101965.25;5073052;28;20390;-70
2022/05/01 01:52:38;;;;;;;22.27;16.38;;;;;;;20.89;44.80;101965.06;5072553;28;20028;-71
2022/05/01 01:55:05;;;;;;;21.27;16.73;;;;;;;20.80;44.96;101961.66;5072468;28;20032;-70
2022/05/01 01:57:31;;;;;;;18.52;16.52;;;;;;;20.66;45.34;101952.91;5072332;28;20081;-71
2022/05/01 01:59:57;;;;;;;25.88;17.05;;;;;;;20.56;45.57;101947.84;5071165;28;20024;-71
2022/05/01 02:02:22;;;;;;;18.25;15.75;;;;;;;20.52;45.79;101944.16;5072507;28;20115;-92
2022/05/01 02:04:48;;;;;;;21.73;15.73;;;;;;;20.50;45.81;101939.75;5072687;28;20111;-71
2022/05/01 02:07:14;;;;;;;21.70;16.88;;;;;;;20.66;45.38;101934.25;5072569;28;20457;-71
2022/05/01 02:09:39;;;;;;;22.90;17.38;;;;;;;20.54;45.70;101936.25;5071184;28;20029;-71
2022/05/01 02:12:09;;;;;;;22.83;16.45;;;;;;;20.53;45.58;101934.66;5072382;28;20029;-71
2022/05/01 02:14:35;;;;;;;24.10;15.88;;;;;;;20.70;45.49;101934.34;5072608;28;20036;-70
2022/05/01 02:17:02;;;;;;;21.45;17.15;;;;;;;20.74;45.19;101929.72;5073315;28;20024;-71
2022/05/01 02:19:31;;;;;;;20.90;16.50;;;;;;;20.77;45.04;101929.00;5072851;28;20031;-70
2022/05/01 02:21:57;;;;;;;24.73;17.13;;;;;;;20.33;46.25;101926.13;5072684;28;20036;-71
2022/05/01 02:24:25;;;;;;;19.70;16.45;;;;;;;20.39;46.22;101912.78;5073300;28;20033;-70
2022/05/01 02:26:51;;;;;;;23.20;15.95;;;;;;;20.16;46.76;101918.06;5072569;28;20027;-70
2022/05/01 02:29:16;;;;;;;20.92;16.15;;;;;;;20.41;45.95;101914.09;5073412;28;20394;-70
2022/05/01 02:31:44;;;;;;;22.33;16.90;;;;;;;20.45;45.91;101903.91;5076683;28;20119;-70
2022/05/01 02:34:11;;;;;;;22.05;16.42;;;;;;;20.47;46.02;101904.34;5076062;28;20031;-89
2022/05/01 02:36:37;;;;;;;21.67;16.27;;;;;;;20.42;46.06;101901.81;5076433;28;20127;-70
2022/05/01 02:39:04;;;;;;;19.85;16.60;;;;;;;20.48;45.90;101899.63;5077527;28;20039;-70
2022/05/01 02:41:31;;;;;;;25.48;17.42;;;;;;;20.52;45.89;101899.72;5076998;28;20107;-71
2022/05/01 02:43:58;;;;;;;23.13;16.73;;;;;;;20.48;45.95;101892.13;5076480;28;20028;-71
2022/05/01 02:46:26;;;;;;;23.90;17.42;;;;;;;20.33;46.40;101892.00;5077256;28;20525;-70
2022/05/01 02:48:52;;;;;;;22.20;16.88;;;;;;;20.36;46.30;101897.66;5075697;28;20107;-71
2022/05/01 02:51:18;;;;;;;22.75;17.48;;;;;;;20.40;46.30;101892.19;5074326;28;20661;-73
2022/05/01 02:53:44;;;;;;;27.65;18.55;;;;;;;20.46;46.05;101899.97;5076161;28;20032;-71
2022/05/01 02:56:09;;;;;;;23.10;17.25;;;;;;;20.54;45.80;101898.19;5075890;28;20481;-71
2022/05/01 02:58:35;;;;;;;23.75;17.67;;;;;;;20.37;46.55;101898.47;5076918;28;20525;-70
2022/05/01 03:01:01;;;;;;;24.05;17.45;;;;;;;20.51;45.76;101893.38;5074463;28;20059;-71
2022/05/01 03:03:27;;;;;;;23.20;16.63;;;;;;;20.42;46.31;101889.91;5076343;28;20032;-94
2022/05/01 03:05:54;;;;;;;21.38;17.35;;;;;;;20.44;46.31;101890.38;5075527;28;20024;-70
2022/05/01 03:08:21;;;;;;;23.05;17.52;;;;;;;20.33;46.67;101892.00;5075590;28;20063;-70
2022/05/01 03:10:47;;;;;;;26.15;18.50;;;;;;;20.72;45.57;101895.94;5075160;28;20029;-70
2022/05/01 03:13:13;;;;;;;22.65;17.88;;;;;;;20.66;45.78;101883.47;5075303;28;20044;-70
2022/05/01 03:15:40;;;;;;;29.67;17.80;;;;;;;20.73;45.62;101887.25;5075789;28;20025;-96
2022/05/01 03:23:35;;;;;;;20.70;16.60;;;;;;;20.64;45.94;101874.69;5075327;28;20085;-94
2022/05/01 03:26:00;;;;;;;29.20;17.50;;;;;;;20.45;46.31;101884.47;5074223;28;20116;-70
2022/05/01 03:28:27;;;;;;;23.73;17.58;;;;;;;20.44;46.34;101884.81;5075932;28;20465;-70
2022/05/01 03:30:53;;;;;;;24.70;16.83;;;;;;;20.59;46.11;101884.06;5074642;28;20056;-70
2022/05/01 03:33:21;;;;;;;24.60;17.02;;;;;;;20.42;46.53;101878.78;5074737;28;20067;-71
2022/05/01 03:35:48;;;;;;;26.80;18.33;;;;;;;20.44;46.38;101882.84;5074544;28;20044;-71
2022/05/01 03:38:15;;;;;;;26.75;18.48;;;;;;;20.46;46.46;101874.97;5074940;28;20492;-70
2022/05/01 03:40:41;;;;;;;20.48;17.45;;;;;;;20.41;46.68;101872.44;5074510;28;20029;-70
2022/05/01 03:43:07;;;;;;;23.98;16.60;;;;;;;20.67;45.98;101868.41;5060872;28;20490;-71
2022/05/01 03:45:33;;;;;;;25.52;19.05;;;;;;;20.71;45.94;101869.34;5054400;28;20033;-71
2022/05/01 03:47:59;;;;;;;22.73;17.42;;;;;;;20.82;45.58;101870.44;5054366;28;20031;-71
2022/05/01 03:50:24;;;;;;;21.95;18.10;;;;;;;20.68;45.83;101856.16;5054271;28;20111;-94
2022/05/01 03:52:50;;;;;;;28.15;17.55;;;;;;;20.86;45.49;101853.88;5054474;28;20036;-71
2022/05/01 03:55:17;;;;;;;28.67;19.20;;;;;;;20.81;45.71;101857.72;5054494;28;20029;-71
2022/05/01 03:57:42;;;;;;;20.98;16.75;;;;;;;20.86;45.47;101853.88;5054404;28;20041;-71
2022/05/01 04:00:18;;;;;;;22.75;17.52;;;;;;;20.75;45.92;101848.00;5052875;28;20036;-71
2022/05/01 04:02:45;;;;;;;22.52;17.35;;;;;;;20.75;45.79;101848.00;5054248;28;20033;-90
2022/05/01 04:05:12;;;;;;;28.98;17.25;;;;;;;20.90;45.26;101850.00;5054331;28;20029;-95
2022/05/01 04:07:39;;;;;;;24.17;17.15;;;;;;;20.67;45.77;101851.75;5054179;28;20021;-94
2022/05/01 04:10:05;;;;;;;25.95;17.17;;;;;;;20.65;46.06;101843.78;5054330;28;20028;-71
2022/05/01 04:12:42;;;;;;;22.67;17.67;;;;;;;20.55;46.38;101841.50;5052726;28;20029;-71
2022/05/01 04:15:11;;;;;;;23.23;17.20;;;;;;;20.66;45.91;101839.03;5052631;28;20086;-71
2022/05/01 04:17:41;;;;;;;25.02;17.17;;;;;;;20.78;45.73;101838.94;5052488;28;20078;-71
2022/05/01 04:20:12;;;;;;;24.38;17.70;;;;;;;20.72;45.96;101832.06;5053768;28;20546;-71
2022/05/01 04:22:44;;;;;;;21.70;15.20;;;;;;;20.66;46.05;101827.94;5053738;28;20035;-71
2022/05/01 04:25:17;;;;;;;18.58;15.38;;;;;;;20.62;46.32;101827.81;5053802;28;20031;-71
2022/05/01 04:27:45;;;;;;;20.42;15.73;;;;;;;20.72;46.05;101826.53;5053655;28;20056;-71
2022/05/01 04:30:13;;;;;;;25.80;16.05;;;;;;;20.83;45.84;101827.59;5053537;28;20406;-71
2022/05/01 04:32:49;;;;;;;20.70;16.30;;;;;;;20.81;45.91;101829.13;5053673;28;20028;-71
2022/05/01 04:35:23;;;;;;;18.55;15.18;;;;;;;20.75;46.06;101837.72;5052246;28;20522;-71
2022/05/01 04:37:49;;;;;;;19.95;16.10;;;;;;;20.75;45.98;101828.56;5053473;28;20024;-71
2022/05/01 04:40:15;;;;;;;26.92;16.45;;;;;;;20.77;45.92;101826.22;5053726;28;20017;-71
2022/05/01 04:42:41;;;;;;;21.02;16.58;;;;;;;20.78;45.93;101825.06;5053538;28;20025;-71
2022/05/01 04:45:08;;;;;;;19.00;14.40;;;;;;;20.71;46.10;101820.16;5053239;28;20483;-71
2022/05/01 04:47:34;;;;;;;17.27;15.10;;;;;;;20.80;46.08;101816.41;5053858;28;20029;-71
2022/05/01 04:50:00;;;;;;;19.48;15.23;;;;;;;20.87;45.86;101799.94;5053312;28;20024;-71
2022/05/01 04:52:25;;;;;;;26.65;16.48;;;;;;;20.71;46.40;101802.69;5051710;28;20491;-71
2022/05/01 04:54:51;;;;;;;17.10;14.52;;;;;;;20.86;45.96;101813.00;5053479;28;20391;-72
2022/05/01 04:57:17;;;;;;;19.60;14.75;;;;;;;20.86;46.02;101812.22;5053540;28;20375;-71
2022/05/01 04:59:43;;;;;;;19.30;14.90;;;;;;;20.88;45.94;101805.13;5053173;28;20583;-71
2022/05/01 05:02:09;;;;;;;17.73;15.00;;;;;;;20.92;45.93;101808.78;5053481;28;20025;-74
2022/05/01 05:04:34;;;;;;;25.58;16.13;;;;;;;20.91;46.05;101806.38;5053148;28;20104;-71
2022/05/01 05:07:00;;;;;;;25.48;16.50;;;;;;;20.91;45.86;101804.38;5053409;28;20029;-70
2022/05/01 05:12:09;;;;;;;22.38;15.23;;;;;;;20.94;45.84;101789.00;5053112;28;20036;-94
2022/05/01 05:14:36;;;;;;;21.27;14.40;;;;;;;21.00;45.80;101793.09;5053123;28;20029;-71
2022/05/01 05:17:06;;;;;;;23.30;16.10;;;;;;;20.96;45.95;101795.78;5053234;28;20467;-71
2022/05/01 05:19:33;;;;;;;22.13;15.85;;;;;;;20.89;46.05;101790.06;5053147;28;20028;-71
2022/05/01 05:21:58;;;;;;;18.85;15.32;;;;;;;20.92;45.97;101794.09;5051502;28;20434;-71
2022/05/01 05:24:24;;;;;;;20.48;15.07;;;;;;;20.79;46.29;101798.94;5053616;28;20032;-71
2022/05/01 05:26:50;;;;;;;26.52;15.32;;;;;;;20.77;46.42;101799.25;5053431;28;20025;-94
2022/05/01 05:29:16;;;;;;;21.65;15.55;;;;;;;20.82;46.27;101798.22;5053601;28;20035;-70
2022/05/01 05:31:42;;;;;;;19.05;16.50;;;;;;;20.93;46.02;101792.91;5052798;28;20112;-71
2022/05/01 05:34:08;;;;;;;22.17;15.25;;;;;;;20.91;46.06;101795.25;5052716;28;20021;-70
2022/05/01 05:36:33;;;;;;;19.90;15.88;;;;;;;20.90;46.25;101807.53;5052556;28;20056;-71
2022/05/01 05:38:59;;;;;;;21.25;16.35;;;;;;;20.95;45.94;101801.72;5054096;28;20029;-71
2022/05/01 05:41:25;;;;;;;24.15;17.33;;;;;;;21.10;45.61;101802.88;5051841;28;20033;-71
2022/05/01 05:43:50;;;;;;;24.50;16.63;;;;;;;21.09;45.61;101810.41;5053560;28;20025;-70
2022/05/01 05:46:17;;;;;;;23.00;15.80;;;;;;;21.22;45.39;101811.91;5054790;28;20021;-70
2022/05/01 05:48:43;;;;;;;28.27;17.67;;;;;;;21.24;45.33;101808.81;5051602;28;20032;-71
2022/05/01 05:51:08;;;;;;;27.55;17.50;;;;;;;21.47;44.65;101807.00;5055297;28;20063;-70
2022/05/01 05:53:34;;;;;;;19.02;15.00;;;;;;;21.15;45.49;101805.38;5052943;28;20036;-79
2022/05/01 05:56:00;;;;;;;26.75;16.85;;;;;;;21.13;45.65;101802.16;5061281;28;20025;-95
2022/05/01 05:58:25;;;;;;;19.33;17.00;;;;;;;21.11;45.66;101802.53;5065443;28;20139;-96
2022/05/01 06:00:51;;;;;;;24.30;16.73;;;;;;;21.02;46.12;101799.94;5072558;28;20065;-93
2022/05/01 06:03:18;;;;;;;24.02;16.80;;;;;;;21.16;45.68;101809.75;5075020;28;20017;-96
2022/05/01 06:05:44;;;;;;;20.40;15.85;;;;;;;21.06;45.98;101800.81;5072796;28;20467;-94
2022/05/01 06:08:09;;;;;;;24.33;17.17;;;;;;;21.12;45.86;101806.09;5073299;28;20092;-96
2022/05/01 06:10:35;;;;;;;22.77;17.58;;;;;;;21.15;45.83;101799.81;5073418;28;20029;-96
2022/05/01 06:13:00;;;;;;;19.23;15.75;;;;;;;21.14;45.97;101799.00;5073391;28;20091;-95
2022/05/01 06:15:26;;;;;;;22.60;16.77;;;;;;;21.06;46.00;101795.25;5076865;28;20035;-84
2022/05/01 06:17:52;;;;;;;21.98;15.75;;;;;;;21.13;46.14;101796.59;5079697;28;20025;-91
2022/05/01 06:20:18;;;;;;;19.48;15.45;;;;;;;21.17;45.78;101792.75;5092140;28;20093;-85
2022/05/01 06:22:43;;;;;;;18.10;15.55;;;;;;;20.96;46.34;101797.78;5089623;28;20013;-70
2022/05/01 06:25:09;;;;;;;22.42;14.73;;;;;;;20.98;46.38;101787.09;5088519;28;20008;-96
2022/05/01 06:27:35;;;;;;;20.35;14.73;;;;;;;20.89;46.84;101800.38;5087145;28;20006;-91
2022/05/01 06:30:01;;;;;;;17.63;13.63;;;;;;;21.02;46.31;101797.16;5074809;28;20050;-93
2022/05/01 06:32:27;;;;;;;18.27;14.20;;;;;;;21.12;46.08;101803.31;5092434;28;20028;-96
2022/05/01 06:34:53;;;;;;;18.02;14.88;;;;;;;21.21;45.83;101798.38;5072736;28;20157;-82
2022/05/01 06:37:18;;;;;;;18.80;14.20;;;;;;;21.14;46.19;101800.97;5081891;28;20128;-76
2022/05/01 06:39:44;;;;;;;18.70;14.07;;;;;;;21.18;46.16;101796.34;5089329;28;20020;-71
2022/05/01 06:42:10;;;;;;;16.92;13.55;;;;;;;21.18;46.11;101799.13;5077883;28;20428;-71
2022/05/01 06:44:36;;;;;;;17.02;12.82;;;;;;;21.25;46.09;101793.72;5075320;28;20036;-70
2022/05/01 06:47:02;;;;;;;18.88;12.70;;;;;;;21.25;46.11;101790.94;5075781;28;20082;-71
2022/05/01 06:49:27;;;;;;;18.65;12.70;;;;;;;21.23;46.18;101791.28;5075377;28;20028;-71
2022/05/01 06:51:53;;;;;;;17.42;12.45;;;;;;;21.00;46.81;101790.31;5075953;28;20524;-71
2022/05/01 06:54:18;;;;;;;16.17;11.73;;;;;;;21.00;47.34;101795.88;5076027;28;20028;-71
2022/05/01 06:56:44;;;;;;;15.07;11.88;;;;;;;20.81;47.56;101804.13;5075443;28;20053;-71
2022/05/01 06:59:11;;;;;;;15.90;11.20;;;;;;;20.72;48.01;101809.84;5076048;28;20040;-70
2022/05/01 07:01:36;;;;;;;17.73;12.63;;;;;;;20.82;47.49;101800.97;5074393;28;20029;-70
2022/05/01 07:04:02;;;;;;;16.58;11.68;;;;;;;20.89;47.45;101800.38;5076017;28;20032;-70
2022/05/01 07:06:28;;;;;;;13.27;10.82;;;;;;;21.10;47.13;101798.13;5075341;28;20519;-71
2022/05/01 07:08:53;;;;;;;12.38;10.27;;;;;;;20.95;47.21;101785.84;5075419;28;20029;-70
2022/05/01 07:11:19;;;;;;;17.77;11.57;;;;;;;20.84;47.78;101798.66;5075126;28;20141;-70
2022/05/01 07:13:45;;;;;;;17.95;10.85;;;;;;;20.84;47.87;101783.97;5075306;28;20122;-70
2022/05/01 07:16:10;;;;;;;13.48;9.88;;;;;;;20.94;47.64;101786.22;5074835;28;20028;-87
2022/05/01 07:18:36;;;;;;;12.88;10.32;;;;;;;21.01;47.49;101789.19;5076046;28;20036;-71
2022/05/01 07:21:02;;;;;;;12.95;8.40;;;;;;;21.08;47.44;101789.31;5075576;28;20032;-70
2022/05/01 07:23:28;;;;;;;11.23;8.20;;;;;;;20.98;47.55;101782.34;5056578;28;20021;-70
2022/05/01 07:25:54;;;;;;;9.57;7.00;;;;;;;21.16;47.11;101779.19;5055168;28;20028;-70
2022/05/01 07:28:19;;;;;;;9.43;8.15;;;;;;;21.14;47.23;101781.53;5054997;28;20025;-83
2022/05/01 07:30:45;;;;;;;8.13;7.20;;;;;;;21.05;47.59;101782.53;5056701;28;20032;-70
2022/05/01 07:33:11;;;;;;;8.23;6.43;;;;;;;21.01;47.63;101784.44;5054915;28;20040;-70
2022/05/01 07:35:37;;;;;;;8.18;6.35;;;;;;;21.09;47.51;101781.81;5054199;28;20071;-75
2022/05/01 07:38:03;;;;;;;8.25;5.53;;;;;;;21.02;47.69;101785.22;5060679;28;20482;-86
2022/05/01 07:40:29;;;;;;;8.85;5.88;;;;;;;20.86;48.13;101788.00;5075181;28;20060;-95
2022/05/01 07:42:55;;;;;;;7.22;5.90;;;;;;;20.89;48.21;101787.28;5075582;28;20052;-72
2022/05/01 07:45:20;;;;;;;9.05;6.13;;;;;;;20.90;48.03;101785.31;5074627;28;20055;-94
2022/05/01 07:47:46;;;;;;;12.82;7.50;;;;;;;20.92;48.18;101788.53;5062610;28;20020;-86
2022/05/01 07:50:12;;;;;;;7.88;6.78;;;;;;;20.90;48.19;101788.88;5065258;28;20012;-71
2022/05/01 07:52:39;;;;;;;9.68;6.72;;;;;;;20.95;48.19;101788.63;5070032;28;20016;-70
2022/05/01 07:55:05;;;;;;;7.72;6.68;;;;;;;21.04;48.02;101797.59;5079188;28;20020;-70
2022/05/01 07:57:30;;;;;;;9.15;6.97;;;;;;;21.07;47.91;101793.28;5080892;28;20036;-70
2022/05/01 07:59:56;;;;;;;10.98;7.55;;;;;;;20.78;48.57;101808.41;5091032;28;20026;-70
2022/05/01 08:02:22;;;;;;;10.30;8.27;;;;;;;21.02;47.96;101801.91;5075465;28;20096;-70
2022/05/01 08:04:48;;;;;;;11.20;7.93;;;;;;;21.01;47.91;101806.66;5074643;28;20040;-70
2022/05/01 08:07:14;;;;;;;13.98;7.10;;;;;;;21.08;47.94;101803.22;5074873;28;20390;-87
2022/05/01 08:09:40;;;;;;;7.72;3.45;;;;;;;21.00;47.99;101809.75;5067977;28;20043;-70
2022/05/01 08:12:06;;;;;;;4.90;3.75;;;;;;;21.08;47.78;101810.75;5073813;28;20025;-71
2022/05/01 08:14:32;;;;;;;4.25;3.25;;;;;;;20.86;48.32;101821.34;5078572;28;20107;-95
2022/05/01 08:16:57;;;;;;;5.43;3.92;;;;;;;21.14;47.45;101815.69;5078854;28;20497;-73
2022/05/01 08:22:08;;;;;;;7.95;3.70;;;;;;;21.04;47.80;101808.69;5082231;28;20089;-95
2022/05/01 08:24:34;;;;;;;4.90;3.72;;;;;;;21.15;47.63;101806.19;5077768;28;20028;-93
2022/05/01 08:27:07;;;;;;;7.80;4.38;;;;;;;21.08;47.85;101808.78;5081658;28;20459;-93
2022/05/01 08:29:39;;;;;;;6.15;4.10;;;;;;;21.12;47.78;101814.44;5064586;28;20029;-95
2022/05/01 08:32:06;;;;;;;3.53;2.15;;;;;;;21.22;47.46;101809.13;5062682;28;20033;-72
2022/05/01 08:34:31;;;;;;;7.47;2.42;;;;;;;21.28;47.42;101818.84;5052227;28;20121;-71
2022/05/01 08:36:57;;;;;;;2.78;1.55;;;;;;;21.38;47.16;101816.69;5056718;28;20116;-94
2022/05/01 08:39:23;;;;;;;2.40;1.27;;;;;;;21.38;47.24;101817.50;5057179;28;20037;-77
2022/05/01 08:41:48;;;;;;;5.70;1.73;;;;;;;21.54;46.81;101815.50;5051987;28;20541;-71
2022/05/01 08:44:16;;;;;;;4.28;1.00;;;;;;;21.45;47.05;101819.63;5050105;28;20052;-71
2022/05/01 08:47:14;;;;;;;6.30;1.50;;;;;;;21.55;46.92;101824.66;5051562;28;20108;-71
2022/05/01 08:49:42;;;;;;;2.38;1.40;;;;;;;21.63;46.60;101832.00;5051482;28;20029;-71
2022/05/01 08:52:10;;;;;;;3.28;0.90;;;;;;;21.55;46.72;101828.25;5052558;28;20471;-71
2022/05/01 08:54:36;;;;;;;1.08;0.80;;;;;;;21.56;46.72;101832.63;5053091;28;20028;-71
2022/05/01 08:57:02;;;;;;;1.50;0.80;;;;;;;21.74;46.20;101835.81;5069922;28;20027;-90
2022/05/01 08:59:28;;;;;;;1.67;0.90;;;;;;;21.46;46.90;101833.19;5073123;28;20382;-71
2022/05/01 09:01:55;;;;;;;1.27;0.73;;;;;;;21.33;46.94;101835.25;5072608;28;20036;-73
2022/05/01 09:04:24;;;;;;;2.17;0.85;;;;;;;21.34;46.96;101833.28;5071663;28;20023;-70
2022/05/01 09:06:51;;;;;;;2.33;0.60;;;;;;;21.21;47.14;101831.72;5056976;28;20145;-71
2022/05/01 09:09:19;;;;;;;3.20;0.60;;;;;;;21.23;46.90;101830.19;5054968;28;20812;-72
2022/05/01 09:14:32;;;;;;;3.58;0.70;;;;;;;21.15;46.76;101836.75;5056627;28;20138;-73
2022/05/01 09:17:27;;;;;;;4.85;1.05;;;;;;;21.02;46.86;101843.56;5056524;28;20024;-69
2022/05/01 09:20:05;;;;;;;4.75;1.20;;;;;;;21.07;46.78;101840.50;5042424;28;20101;-69
2022/05/01 09:22:47;;;;;;;7.88;2.45;;;;;;;20.86;47.18;101837.22;5056136;28;20040;-69
2022/05/01 09:25:23;;;;;;;6.47;1.13;;;;;;;20.85;46.92;101841.94;5055645;28;20032;-70
2022/05/01 09:27:51;;;;;;;6.97;1.80;;;;;;;21.09;46.76;101842.97;5055865;28;20028;-70
2022/05/01 09:30:21;;;;;;;2.38;0.90;;;;;;;21.12;46.85;101828.34;5056234;28;20016;-76
2022/05/01 09:32:47;;;;;;;1.67;0.50;;;;;;;21.17;46.69;101828.06;5055425;28;20025;-78
2022/05/01 09:35:17;;;;;;;4.95;1.27;;;;;;;21.21;46.83;101826.19;5058706;28;20042;-91
2022/05/01 09:37:44;;;;;;;1.48;0.85;;;;;;;;;;5068016;28;20052;-83
2022/05/01 09:40:13;;;;;;;1.25;0.60;;;;;;;21.25;46.52;101830.66;5071660;28;20090;-83
2022/05/01 09:42:39;;;;;;;1.88;1.05;;;;;;;21.37;46.38;101832.56;5071926;28;20037;-71
2022/05/01 09:45:11;;;;;;;1.75;0.75;;;;;;;21.51;46.33;101829.31;5072575;28;20552;-69
2022/05/01 09:47:41;;;;;;;1.70;0.90;;;;;;;21.63;46.10;101832.00;5071405;28;20021;-69
2022/05/01 09:50:08;;;;;;;5.72;2.97;;;;;;;21.48;46.42;101836.41;5066555;28;20033;-69
2022/05/01 09:52:53;;;;;;;5.10;1.58;;;;;;;21.53;46.41;101847.25;5071337;28;20109;-69
2022/05/01 09:55:19;;;;;;;2.13;1.10;;;;;;;21.56;46.44;101842.94;5070469;28;20044;-69
2022/05/01 09:57:44;;;;;;;2.70;1.50;;;;;;;21.59;46.30;101845.00;5071943;28;20028;-81
2022/05/01 10:00:11;;;;;;;2.30;0.70;;;;;;;21.64;46.00;101847.50;5070804;28;20094;-78
2022/05/01 10:02:36;;;;;;;2.78;1.10;;;;;;;21.54;46.07;101848.88;5072082;28;21730;-88
2022/05/01 10:05:06;;;;;;;2.85;0.90;;;;;;;21.71;45.83;101842.13;5069670;28;20120;-85
2022/05/01 10:07:38;;;;;;;4.20;1.35;;;;;;;21.48;46.29;101843.94;5066561;28;20059;-69
2022/05/01 10:10:07;;;;;;;4.57;1.20;;;;;;;21.69;45.78;101850.03;5069341;28;20036;-69
2022/05/01 10:12:41;;;;;;;5.30;1.20;;;;;;;21.73;46.11;101842.56;5070850;28;20064;-70
2022/05/01 10:15:08;;;;;;;5.22;1.25;;;;;;;21.57;46.38;101844.56;5071455;28;20045;-70
2022/05/01 10:17:35;;;;;;;4.45;1.45;;;;;;;21.79;45.66;101831.97;5071396;28;20557;-69
2022/05/01 10:20:03;;;;;;;7.88;0.93;;;;;;;21.50;46.44;101839.63;5070175;28;20017;-69
2022/05/01 10:22:30;;;;;;;3.38;0.85;;;;;;;21.81;45.80;101835.19;5070755;28;20024;-69
2022/05/01 10:24:56;;;;;;;4.05;1.50;;;;;;;22.09;45.12;101826.69;5060739;28;20028;-70
2022/05/01 10:27:37;;;;;;;8.18;2.00;;;;;;;22.27;45.14;101830.63;5054346;28;20024;-70
2022/05/01 10:33:15;;;;;;;2.25;1.15;;;;;;;22.42;44.16;101832.53;5054345;28;20122;-72
2022/05/01 10:35:46;;;;;;;4.28;3.08;;;;;;;22.70;44.41;101817.53;5053225;28;20053;-69
2022/05/01 10:38:23;;;;;;;4.95;1.13;;;;;;;22.55;44.55;101822.03;5053293;28;20035;-71
2022/05/01 10:40:55;;;;;;;2.00;1.10;;;;;;;22.70;44.51;101828.69;5054150;28;20032;-72
2022/05/01 10:43:25;;;;;;;1.90;0.85;;;;;;;22.85;44.23;101829.75;5053779;28;20074;-76
2022/05/01 10:45:52;;;;;;;;;;;;;;;22.88;43.71;101812.31;5054817;28;20064;-69
2022/05/01 10:48:36;;;;;;;2.30;1.10;;;;;;;23.14;43.42;101837.47;5069083;28;19919;-68
2022/05/01 10:51:38;;;;;;;5.10;1.23;;;;;;;23.13;43.72;101830.28;5052986;28;20048;-69
2022/05/01 10:54:31;;;;;;;6.63;1.88;;;;;;;23.38;43.78;101827.09;5055185;28;20486;-67
2022/05/01 10:57:09;;;;;;;2.17;1.23;;;;;;;23.33;42.94;101835.78;5048977;28;20033;-68
2022/05/01 10:59:39;;;;;;;3.80;1.08;;;;;;;23.51;42.91;101825.72;5055267;28;20036;-68
2022/05/01 11:02:06;;;;;;;3.45;1.85;;;;;;;23.45;43.04;101821.63;5067217;28;20540;-68
2022/05/01 11:04:41;;;;;;;1.10;0.52;;;;;;;23.50;42.06;101826.88;5074965;28;20020;-68
2022/05/01 11:07:10;;;;;;;3.50;1.30;;;;;;;23.61;42.52;101824.28;5073897;28;20085;-84
2022/05/01 11:09:37;;;;;;;2.40;1.10;;;;;;;23.79;42.36;101823.34;5073903;28;20024;-69
2022/05/01 11:12:06;;;;;;;1.35;0.80;;;;;;;23.95;41.71;101823.16;5073733;28;20090;-69
2022/05/01 11:14:50;;;;;;;3.72;2.72;;;;;;;23.86;42.33;101817.06;5073813;28;20032;-84
2022/05/01 11:17:46;;;;;;;2.55;1.75;;;;;;;24.09;42.15;101822.56;5075039;28;20547;-71
2022/05/01 11:20:14;;;;;;;2.40;1.17;;;;;;;23.85;42.05;101815.47;5074758;28;20033;-69
2022/05/01 11:22:41;;;;;;;2.53;0.77;;;;;;;23.93;41.60;101817.16;5074792;28;20031;-83
2022/05/01 11:25:12;;;;;;;5.57;1.40;;;;;;;23.77;41.83;101817.34;5073532;28;20033;-69
2022/05/01 11:27:50;;;;;;;4.40;1.13;;;;;;;23.74;41.78;101825.69;5074772;28;20033;-69
2022/05/01 11:30:28;;;;;;;2.22;1.10;;;;;;;23.42;41.29;101816.78;5073350;28;20024;-69
2022/05/01 11:33:10;;;;;;;1.60;1.20;;;;;;;23.62;41.82;101820.31;5083181;28;20027;-85
2022/05/01 11:35:57;;;;;;;2.17;1.00;;;;;;;23.76;41.83;101814.94;5094991;28;20044;-81
2022/05/01 11:38:30;;;;;;;2.22;0.70;;;;;;;23.89;41.66;101821.91;5090675;28;20021;-69
2022/05/01 11:40:57;;;;;;;1.50;0.88;;;;;;;23.97;41.43;101812.44;5074698;28;20478;-68
2022/05/01 11:43:23;;;;;;;6.00;0.80;;;;;;;23.94;41.25;101821.56;5074604;28;20031;-69
2022/05/01 11:45:50;;;;;;;4.15;1.10;;;;;;;23.81;41.62;101820.22;5074609;28;20021;-84